Time;durP1;ratioP1;P1;durP2;ratioP2;P2;SDS_P1;SDS_P2;PMS_P1;PMS_P2;Temp;Humidity;BMP_temperature;BMP_pressure;BME280_temperature;BME280_humidity;BME280_pressure;Samples;Min_cycle;Max_cycle;Signal;HPM_P1;HPM_P2
2023/10/30 00:01:29;;;;;;;5.18;0.60;;;;;;;15.03;67.93;96078.88;4910236;28;20222;-83
2023/10/30 00:03:54;;;;;;;7.90;1.17;;;;;;;14.73;68.70;96083.75;4907739;28;20250;-82
2023/10/30 00:06:20;;;;;;;3.50;0.65;;;;;;;14.78;69.13;96088.13;4898784;28;20246;-84
2023/10/30 00:08:45;;;;;;;5.72;0.93;;;;;;;14.81;68.96;96087.53;4910788;28;20321;-84
2023/10/30 00:11:11;;;;;;;3.30;0.75;;;;;;;14.72;69.38;96094.53;4899297;28;20322;-83
2023/10/30 00:13:36;;;;;;;2.42;0.63;;;;;;;14.71;68.83;96078.03;4906951;28;20169;-83
2023/10/30 00:16:02;;;;;;;1.73;0.60;;;;;;;14.68;68.85;96075.25;4903531;28;20208;-83
2023/10/30 00:18:28;;;;;;;4.43;1.23;;;;;;;14.71;68.78;96087.75;4905159;28;20162;-83
2023/10/30 00:20:54;;;;;;;3.80;0.80;;;;;;;14.75;69.30;96081.63;4923413;28;20631;-84
2023/10/30 00:23:19;;;;;;;7.03;2.58;;;;;;;14.75;68.66;96058.06;4907605;28;20229;-83
2023/10/30 00:25:44;;;;;;;4.47;0.90;;;;;;;14.77;68.50;96066.38;4911188;28;20570;-85
2023/10/30 00:28:10;;;;;;;5.43;1.20;;;;;;;14.60;68.58;96053.94;4897070;28;20784;-85
2023/10/30 00:30:35;;;;;;;5.15;0.55;;;;;;;14.58;68.75;96073.59;4904579;28;20183;-84
2023/10/30 00:33:01;;;;;;;2.88;1.00;;;;;;;14.77;68.64;96097.03;4916652;28;20298;-83
2023/10/30 00:35:26;;;;;;;5.07;1.48;;;;;;;14.68;68.57;96110.06;4916494;28;20162;-84
2023/10/30 00:37:51;;;;;;;5.03;0.70;;;;;;;14.61;68.81;96117.56;4912092;28;20290;-84
2023/10/30 00:40:17;;;;;;;2.65;0.60;;;;;;;14.45;69.31;96117.13;4923013;28;20650;-86
2023/10/30 00:42:42;;;;;;;5.53;1.10;;;;;;;14.69;68.36;96113.50;4918439;28;20255;-85
2023/10/30 00:45:08;;;;;;;8.30;1.10;;;;;;;14.48;68.78;96105.25;4916758;28;20158;-84
2023/10/30 00:47:38;;;;;;;1.25;0.60;;;;;;;14.46;68.23;96108.16;4901700;28;20599;-85
2023/10/30 00:50:07;;;;;;;3.65;0.68;;;;;;;14.47;68.52;96091.41;4929839;28;20320;-83
2023/10/30 00:52:33;;;;;;;2.65;0.80;;;;;;;14.56;68.09;96081.00;4904992;28;20193;-84
2023/10/30 00:54:58;;;;;;;5.35;0.70;;;;;;;14.48;67.99;96084.31;4898382;28;20114;-83
2023/10/30 00:57:24;;;;;;;3.33;0.65;;;;;;;14.44;68.29;96099.84;4898521;28;20195;-84
2023/10/30 00:59:49;;;;;;;2.42;1.55;;;;;;;14.46;68.03;96094.31;4917366;28;20191;-85
2023/10/30 01:02:14;;;;;;;3.17;0.70;;;;;;;14.49;67.92;96114.69;4915759;28;20208;-82
2023/10/30 01:04:40;;;;;;;4.70;0.77;;;;;;;14.20;68.30;96089.63;4915947;28;20676;-86
2023/10/30 01:07:05;;;;;;;2.45;0.55;;;;;;;14.30;68.61;96094.63;4906494;28;20176;-85
2023/10/30 01:09:31;;;;;;;3.33;0.65;;;;;;;14.32;68.72;96096.97;4913204;28;20242;-84
2023/10/30 01:11:56;;;;;;;4.68;0.60;;;;;;;14.23;68.25;96073.31;4922440;28;20267;-84
2023/10/30 01:14:22;;;;;;;5.90;0.68;;;;;;;14.43;67.81;96099.06;4910678;28;20160;-85
2023/10/30 01:16:49;;;;;;;5.03;1.08;;;;;;;14.39;68.51;96095.50;4928763;28;20184;-85
2023/10/30 01:19:15;;;;;;;1.13;0.50;;;;;;;14.37;68.10;96068.81;4911124;28;20172;-85
2023/10/30 01:21:40;;;;;;;4.35;0.60;;;;;;;14.22;68.21;96058.69;4888192;28;20241;-85
2023/10/30 01:24:06;;;;;;;4.63;0.80;;;;;;;14.35;68.13;96073.59;4909097;28;20566;-83
2023/10/30 01:26:32;;;;;;;2.38;0.50;;;;;;;14.37;68.32;96089.00;4895944;28;20596;-86
2023/10/30 01:28:57;;;;;;;2.40;1.00;;;;;;;14.14;68.26;96065.41;4880817;28;20667;-84
2023/10/30 01:31:27;;;;;;;4.30;0.55;;;;;;;14.30;67.62;96060.59;4927267;28;20604;-83
2023/10/30 01:33:53;;;;;;;2.05;0.57;;;;;;;14.32;68.04;96065.53;4912624;28;20220;-83
2023/10/30 01:36:19;;;;;;;2.83;0.70;;;;;;;14.37;67.87;96062.81;4926714;28;20205;-83
2023/10/30 01:38:44;;;;;;;2.88;0.77;;;;;;;14.40;67.76;96052.53;4911501;28;20168;-83
2023/10/30 01:41:09;;;;;;;3.42;0.70;;;;;;;14.46;67.71;96055.03;4908380;28;20237;-83
2023/10/30 01:43:35;;;;;;;2.60;0.50;;;;;;;14.36;68.50;96056.00;4910151;28;20706;-83
2023/10/30 01:46:01;;;;;;;1.85;0.57;;;;;;;14.46;67.86;96065.50;4910474;28;20287;-83
2023/10/30 01:48:29;;;;;;;2.20;0.40;;;;;;;14.46;68.17;96055.03;4909952;28;20202;-82
2023/10/30 01:50:55;;;;;;;3.85;0.40;;;;;;;14.33;67.71;96039.06;4910959;28;20075;-83
2023/10/30 01:53:21;;;;;;;2.17;0.63;;;;;;;14.35;68.36;96044.00;4893487;28;20195;-83
2023/10/30 01:55:47;;;;;;;3.90;0.60;;;;;;;14.39;68.03;96045.75;4895377;28;20206;-83
2023/10/30 01:58:13;;;;;;;3.72;0.30;;;;;;;14.35;67.94;96033.53;4920044;28;20246;-83
2023/10/30 02:00:42;;;;;;;2.45;0.50;;;;;;;14.35;67.79;96050.00;4903698;28;20257;-82
2023/10/30 02:05:59;;;;;;;3.33;0.60;;;;;;;14.26;67.67;96041.31;4920704;28;20283;-83
2023/10/30 02:08:24;;;;;;;2.17;0.52;;;;;;;14.19;68.45;96046.19;4903481;28;20222;-83
2023/10/30 02:10:49;;;;;;;2.40;1.35;;;;;;;14.28;68.71;96043.66;4922661;28;20256;-82
2023/10/30 02:13:15;;;;;;;2.97;0.95;;;;;;;14.26;68.36;96036.09;4917077;28;20216;-83
2023/10/30 02:15:41;;;;;;;2.45;0.63;;;;;;;14.15;68.96;96032.13;4889888;28;20110;-82
2023/10/30 02:18:06;;;;;;;2.60;0.73;;;;;;;14.31;67.53;96033.34;4901434;28;20330;-86
2023/10/30 02:20:33;;;;;;;0.90;0.50;;;;;;;14.37;67.57;96029.53;4926362;28;20115;-83
2023/10/30 02:22:58;;;;;;;2.35;0.50;;;;;;;14.28;68.36;96039.19;4887700;28;20267;-81
2023/10/30 02:25:24;;;;;;;1.60;0.32;;;;;;;14.22;68.38;96024.63;4910929;28;20750;-83
2023/10/30 02:27:51;;;;;;;1.92;0.30;;;;;;;14.21;68.13;96033.59;4905225;28;20210;-82
2023/10/30 02:30:16;;;;;;;2.92;0.50;;;;;;;14.26;68.02;96025.63;4923840;28;20702;-82
2023/10/30 02:32:44;;;;;;;3.70;0.52;;;;;;;14.22;68.48;96014.97;4902361;28;20267;-82
2023/10/30 02:35:11;;;;;;;4.15;0.40;;;;;;;14.24;68.40;96009.44;4892323;28;20212;-82
2023/10/30 02:37:36;;;;;;;1.90;0.30;;;;;;;14.36;68.02;96014.13;4898308;28;20271;-82
2023/10/30 02:40:02;;;;;;;0.98;0.50;;;;;;;14.38;68.04;96015.38;4917872;28;20323;-81
2023/10/30 02:42:27;;;;;;;1.83;0.50;;;;;;;14.34;68.13;96011.81;4909913;28;20253;-82
2023/10/30 02:44:53;;;;;;;2.85;0.52;;;;;;;14.41;68.19;96017.41;4908768;28;20203;-81
2023/10/30 02:47:20;;;;;;;1.10;0.38;;;;;;;14.34;68.26;96001.34;4907855;28;20219;-81
2023/10/30 02:49:45;;;;;;;1.02;0.43;;;;;;;14.29;68.13;95996.22;4912456;28;20233;-82
2023/10/30 02:52:11;;;;;;;2.88;0.40;;;;;;;14.37;68.37;96003.34;4919434;28;20458;-82
2023/10/30 02:54:36;;;;;;;1.73;0.30;;;;;;;14.34;68.59;96006.59;4901807;28;20193;-82
2023/10/30 02:57:02;;;;;;;2.63;0.35;;;;;;;14.38;68.13;96007.53;4919056;28;20111;-81
2023/10/30 02:59:27;;;;;;;1.95;0.30;;;;;;;14.40;68.23;96015.84;4878050;28;20208;-82
2023/10/30 03:01:52;;;;;;;0.82;0.35;;;;;;;14.32;68.39;95994.84;4923223;28;20186;-84
2023/10/30 03:04:18;;;;;;;1.35;0.40;;;;;;;14.38;68.88;96004.91;4918484;28;20702;-83
2023/10/30 03:06:43;;;;;;;2.03;0.30;;;;;;;14.26;68.56;95985.56;4896876;28;20189;-83
2023/10/30 03:09:08;;;;;;;2.17;0.55;;;;;;;14.33;68.88;95999.03;4922232;28;20165;-81
2023/10/30 03:11:34;;;;;;;1.73;0.55;;;;;;;14.32;68.87;95993.00;4926295;28;20396;-82
2023/10/30 03:13:59;;;;;;;3.70;0.52;;;;;;;14.29;69.50;95988.38;4925402;28;20187;-83
2023/10/30 03:16:24;;;;;;;1.75;0.30;;;;;;;14.34;69.10;95996.13;4904151;28;20275;-82
2023/10/30 03:18:50;;;;;;;0.90;0.43;;;;;;;14.36;68.68;95993.97;4891937;28;20281;-82
2023/10/30 03:21:15;;;;;;;2.00;0.30;;;;;;;14.38;68.54;95991.81;4880548;28;20626;-81
2023/10/30 03:23:41;;;;;;;3.88;0.50;;;;;;;14.47;69.08;95991.88;4919913;28;20295;-83
2023/10/30 03:26:06;;;;;;;0.93;0.25;;;;;;;14.45;68.80;95988.03;4904593;28;20204;-82
2023/10/30 03:28:32;;;;;;;0.77;0.50;;;;;;;14.57;68.24;95998.72;4889865;28;20203;-85
2023/10/30 03:31:04;;;;;;;0.60;0.60;;;;;;;14.69;68.15;96009.47;4905128;28;20677;-82
2023/10/30 03:33:29;;;;;;;1.42;0.45;;;;;;;14.41;68.98;96000.91;4909176;28;20326;-82
2023/10/30 03:35:55;;;;;;;1.08;0.40;;;;;;;14.47;69.04;96004.97;4916171;28;20364;-83
2023/10/30 03:38:20;;;;;;;2.28;0.30;;;;;;;14.41;69.11;96011.38;4906068;28;20280;-82
2023/10/30 03:40:48;;;;;;;2.38;0.30;;;;;;;14.63;68.69;96023.75;4910530;28;20220;-84
2023/10/30 03:43:16;;;;;;;0.77;0.30;;;;;;;14.62;68.88;96022.22;4914982;28;20631;-83
2023/10/30 03:45:41;;;;;;;2.55;0.50;;;;;;;14.53;68.83;96009.03;4898475;28;20196;-83
2023/10/30 03:48:07;;;;;;;2.13;0.43;;;;;;;14.53;69.44;96013.47;4927084;28;20143;-84
2023/10/30 03:50:32;;;;;;;0.93;0.40;;;;;;;14.59;69.25;96017.56;4897704;28;20285;-83
2023/10/30 03:52:57;;;;;;;0.50;0.30;;;;;;;14.75;68.55;96008.28;4914099;28;20302;-83
2023/10/30 03:55:23;;;;;;;0.65;0.35;;;;;;;14.76;68.17;96003.78;4892992;28;20278;-83
2023/10/30 03:57:48;;;;;;;1.05;0.82;;;;;;;14.74;68.57;95992.84;4919738;28;20200;-83
2023/10/30 04:00:13;;;;;;;1.50;0.40;;;;;;;14.68;68.76;95986.94;4901413;28;20230;-83
2023/10/30 04:02:42;;;;;;;1.48;0.47;;;;;;;14.72;68.29;95995.75;4930735;28;20225;-82
2023/10/30 04:05:08;;;;;;;1.30;0.40;;;;;;;14.77;68.58;95995.63;4927643;28;20203;-84
2023/10/30 04:07:33;;;;;;;0.77;0.57;;;;;;;14.83;68.46;96000.75;4894050;28;20294;-82
2023/10/30 04:09:58;;;;;;;1.48;0.40;;;;;;;14.86;68.57;96003.53;4910858;28;20358;-82
2023/10/30 04:12:24;;;;;;;0.80;0.50;;;;;;;14.70;68.02;95992.69;4919881;28;20169;-83
2023/10/30 04:14:51;;;;;;;1.20;0.77;;;;;;;14.77;68.54;95993.03;4902345;28;20348;-82
2023/10/30 04:17:16;;;;;;;2.20;0.30;;;;;;;14.87;67.78;96002.44;4914403;28;20257;-83
2023/10/30 04:19:42;;;;;;;1.38;0.40;;;;;;;14.77;68.54;96000.09;4908515;28;20634;-83
2023/10/30 04:22:07;;;;;;;0.77;0.20;;;;;;;14.85;68.37;96006.47;4906553;28;20649;-83
2023/10/30 04:24:33;;;;;;;1.00;0.30;;;;;;;14.84;68.15;96010.16;4919854;28;20646;-83
2023/10/30 04:26:58;;;;;;;1.85;0.57;;;;;;;14.82;68.53;96009.69;4908814;28;20211;-82
2023/10/30 04:29:25;;;;;;;1.98;0.40;;;;;;;14.89;68.17;96008.19;4912491;28;20099;-83
2023/10/30 04:31:53;;;;;;;1.10;0.40;;;;;;;14.87;68.38;96014.78;4917261;28;20280;-83
2023/10/30 04:34:19;;;;;;;1.02;0.30;;;;;;;14.90;68.11;96007.09;4918269;28;20749;-82
2023/10/30 04:36:45;;;;;;;2.85;0.50;;;;;;;14.91;68.48;96008.66;4908812;28;20156;-83
2023/10/30 04:39:11;;;;;;;1.45;0.30;;;;;;;14.82;68.44;95993.97;4889084;28;20446;-81
2023/10/30 04:41:37;;;;;;;0.30;0.30;;;;;;;14.85;68.19;95995.97;4921253;28;20207;-82
2023/10/30 04:44:02;;;;;;;0.77;0.40;;;;;;;14.78;69.08;96005.03;4894960;28;20288;-82
2023/10/30 04:46:28;;;;;;;0.60;0.32;;;;;;;14.81;68.41;95998.44;4922728;28;20207;-82
2023/10/30 04:48:53;;;;;;;0.90;0.32;;;;;;;14.84;68.25;96010.16;4913493;28;20247;-83
2023/10/30 04:51:19;;;;;;;1.30;0.40;;;;;;;14.88;68.74;96019.75;4913469;28;20703;-82
2023/10/30 04:53:44;;;;;;;0.52;0.40;;;;;;;14.84;68.17;96018.00;4910654;28;20205;-84
2023/10/30 04:56:10;;;;;;;0.50;0.40;;;;;;;14.76;68.60;96019.53;4889395;28;20169;-82
2023/10/30 04:58:35;;;;;;;0.50;0.20;;;;;;;14.87;68.51;96033.13;4895814;28;20284;-82
2023/10/30 05:01:10;;;;;;;0.60;0.30;;;;;;;14.79;68.86;96042.50;4911806;28;20231;-82
2023/10/30 05:03:36;;;;;;;0.63;0.50;;;;;;;14.82;68.22;96049.75;4907181;28;20303;-81
2023/10/30 05:06:02;;;;;;;0.40;0.40;;;;;;;14.87;68.34;96048.88;4912489;28;20239;-82
2023/10/30 05:08:27;;;;;;;1.60;0.40;;;;;;;14.87;68.51;96056.72;4907704;28;20702;-83
2023/10/30 05:10:56;;;;;;;1.40;0.52;;;;;;;14.92;68.06;96059.22;4894404;28;20200;-83
2023/10/30 05:13:21;;;;;;;1.17;0.30;;;;;;;14.89;68.50;96059.81;4925847;28;20237;-83
2023/10/30 05:15:46;;;;;;;0.73;0.60;;;;;;;14.88;68.47;96063.53;4912541;28;20285;-82
2023/10/30 05:18:13;;;;;;;0.90;0.30;;;;;;;14.87;67.98;96070.59;4906633;28;20205;-82
2023/10/30 05:20:38;;;;;;;1.58;0.30;;;;;;;14.92;68.34;96067.09;4920539;28;20235;-82
2023/10/30 05:23:04;;;;;;;0.93;0.30;;;;;;;14.90;68.41;96069.25;4919991;28;20217;-82
2023/10/30 05:25:29;;;;;;;0.40;0.30;;;;;;;14.84;68.68;96065.97;4923061;28;20244;-82
2023/10/30 05:27:56;;;;;;;0.63;0.40;;;;;;;14.88;68.15;96066.91;4922409;28;20172;-82
2023/10/30 05:30:21;;;;;;;0.65;0.30;;;;;;;14.90;68.40;96056.91;4921062;28;20253;-82
2023/10/30 05:32:46;;;;;;;0.98;0.60;;;;;;;14.96;68.68;96068.06;4910813;28;20646;-82
2023/10/30 05:35:12;;;;;;;0.75;0.40;;;;;;;14.78;68.41;96031.22;4919560;28;20220;-83
2023/10/30 05:37:37;;;;;;;1.73;0.40;;;;;;;14.89;68.19;96044.09;4916019;28;20306;-82
2023/10/30 05:40:03;;;;;;;0.90;0.45;;;;;;;14.89;68.62;96037.03;4917502;28;20664;-81
2023/10/30 05:42:28;;;;;;;0.60;0.40;;;;;;;14.83;68.49;96026.97;4905528;28;20281;-82
2023/10/30 05:44:54;;;;;;;1.02;0.38;;;;;;;14.91;67.92;96039.34;4905928;28;20645;-82
2023/10/30 05:47:19;;;;;;;1.35;0.22;;;;;;;14.97;67.90;96046.75;4911243;28;20596;-82
2023/10/30 05:49:45;;;;;;;0.75;0.30;;;;;;;14.97;68.31;96054.63;4905627;28;20643;-82
2023/10/30 05:52:11;;;;;;;2.03;0.45;;;;;;;14.93;68.38;96053.69;4926846;28;20270;-82
2023/10/30 05:54:37;;;;;;;2.40;0.50;;;;;;;15.05;67.73;96055.75;4924509;28;20251;-81
2023/10/30 05:57:02;;;;;;;0.75;0.45;;;;;;;14.87;68.07;96033.13;4924399;28;20722;-82
2023/10/30 05:59:27;;;;;;;2.25;0.45;;;;;;;14.98;67.72;96052.78;4905937;28;20326;-82
2023/10/30 06:01:53;;;;;;;1.48;0.30;;;;;;;14.81;68.29;96031.72;4924265;28;20131;-82
2023/10/30 06:04:18;;;;;;;1.02;0.30;;;;;;;14.89;68.28;96041.47;4921874;28;20651;-83
2023/10/30 06:06:43;;;;;;;0.40;0.38;;;;;;;14.95;68.49;96042.91;4905202;28;20353;-82
2023/10/30 06:09:09;;;;;;;1.38;0.30;;;;;;;14.95;68.02;96045.53;4905478;28;20190;-82
2023/10/30 06:11:34;;;;;;;0.30;0.30;;;;;;;14.98;68.19;96044.94;4907035;28;20181;-82
2023/10/30 06:13:59;;;;;;;0.95;0.30;;;;;;;15.00;67.71;96042.00;4891737;28;20139;-82
2023/10/30 06:16:25;;;;;;;0.50;0.35;;;;;;;14.97;68.56;96041.50;4936335;28;20562;-81
2023/10/30 06:18:50;;;;;;;1.40;0.30;;;;;;;14.98;68.10;96029.19;4920220;28;20570;-82
2023/10/30 06:21:16;;;;;;;0.45;0.30;;;;;;;15.01;68.44;96027.81;4919101;28;20197;-82
2023/10/30 06:23:42;;;;;;;0.45;0.30;;;;;;;14.89;68.14;96010.03;4922936;28;20377;-82
2023/10/30 06:26:11;;;;;;;0.28;0.28;;;;;;;15.01;68.64;96022.56;4907311;28;20164;-82
2023/10/30 06:28:37;;;;;;;1.63;0.60;;;;;;;15.04;67.77;96021.97;4909892;28;20187;-82
2023/10/30 06:31:04;;;;;;;0.82;0.40;;;;;;;15.15;67.67;96031.16;4907694;28;20226;-83
2023/10/30 06:33:31;;;;;;;1.17;0.30;;;;;;;15.13;67.93;96026.19;4903667;28;20379;-83
2023/10/30 06:35:58;;;;;;;1.73;0.43;;;;;;;15.12;67.48;96045.63;4920617;28;20247;-83
2023/10/30 06:38:24;;;;;;;1.85;0.43;;;;;;;15.12;67.80;96053.47;4895876;28;20204;-83
2023/10/30 06:40:49;;;;;;;1.88;0.45;;;;;;;15.04;68.08;96075.16;4926972;28;20355;-83
2023/10/30 06:43:14;;;;;;;0.43;0.43;;;;;;;15.00;68.53;96074.22;4907137;28;20200;-83
2023/10/30 06:45:40;;;;;;;1.15;0.55;;;;;;;15.06;68.27;96082.75;4917034;28;20664;-83
2023/10/30 06:48:05;;;;;;;0.40;0.30;;;;;;;14.94;68.32;96067.56;4890873;28;20165;-83
2023/10/30 06:50:30;;;;;;;1.17;0.35;;;;;;;14.88;68.49;96056.44;4906543;28;23093;-83
2023/10/30 06:52:57;;;;;;;0.50;0.32;;;;;;;14.86;68.36;96058.56;4921075;28;20211;-83
2023/10/30 06:55:22;;;;;;;0.40;0.30;;;;;;;15.01;68.00;96075.00;4903765;28;20110;-83
2023/10/30 06:57:47;;;;;;;0.30;0.30;;;;;;;15.07;68.12;96069.34;4932884;28;20637;-83
2023/10/30 07:00:13;;;;;;;0.43;0.40;;;;;;;15.02;68.31;96058.97;4919327;28;20176;-83
2023/10/30 07:02:40;;;;;;;0.65;0.30;;;;;;;15.05;68.12;96055.75;4893176;28;20203;-83
2023/10/30 07:05:06;;;;;;;0.40;0.20;;;;;;;15.07;68.15;96068.56;4914936;28;20700;-83
2023/10/30 07:07:32;;;;;;;0.60;0.40;;;;;;;15.16;68.18;96078.03;4916230;28;20188;-84
2023/10/30 07:09:57;;;;;;;0.50;0.30;;;;;;;15.14;68.15;96082.78;4924324;28;20199;-83
2023/10/30 07:12:23;;;;;;;0.35;0.30;;;;;;;15.19;68.09;96092.38;4904292;28;20337;-83
2023/10/30 07:14:48;;;;;;;1.38;0.85;;;;;;;15.14;67.96;96095.13;4913691;28;20685;-84
2023/10/30 07:17:13;;;;;;;2.30;0.40;;;;;;;15.17;68.28;96095.31;4889072;28;20181;-83
2023/10/30 07:19:39;;;;;;;0.52;0.40;;;;;;;15.07;68.13;96077.19;4909759;28;20686;-83
2023/10/30 07:22:05;;;;;;;0.45;0.30;;;;;;;15.11;68.22;96074.75;4899871;28;20310;-84
2023/10/30 07:24:30;;;;;;;0.60;0.50;;;;;;;15.16;68.10;96088.53;4911855;28;20220;-84
2023/10/30 07:26:57;;;;;;;0.70;0.30;;;;;;;15.16;68.59;96088.53;4897731;28;20196;-84
2023/10/30 07:29:23;;;;;;;0.98;0.43;;;;;;;15.17;68.37;96095.31;4919779;28;20654;-83
2023/10/30 07:31:49;;;;;;;1.23;0.40;;;;;;;15.25;68.31;96091.19;4901883;28;20276;-84
2023/10/30 07:34:14;;;;;;;0.40;0.40;;;;;;;15.16;68.64;96080.66;4914556;28;20204;-84
2023/10/30 07:36:40;;;;;;;2.30;0.50;;;;;;;15.29;67.89;96099.22;4907498;28;20371;-84
2023/10/30 07:39:07;;;;;;;0.60;0.60;;;;;;;15.32;68.20;96101.25;4886392;28;20192;-84
2023/10/30 07:41:33;;;;;;;0.45;0.20;;;;;;;15.36;67.92;96097.72;4898545;28;20620;-84
2023/10/30 07:43:59;;;;;;;0.70;0.30;;;;;;;15.32;68.21;96101.25;4914604;28;20196;-84
2023/10/30 07:46:25;;;;;;;0.60;0.35;;;;;;;15.26;67.77;96092.72;4918565;28;20334;-84
2023/10/30 07:48:50;;;;;;;0.38;0.30;;;;;;;15.12;68.59;96077.06;4916142;28;20605;-85
2023/10/30 07:51:16;;;;;;;0.32;0.30;;;;;;;15.36;67.96;96102.19;4896176;28;20196;-84
2023/10/30 07:53:42;;;;;;;0.95;0.30;;;;;;;15.26;68.39;96091.97;4886636;28;20223;-84
2023/10/30 07:56:08;;;;;;;0.50;0.30;;;;;;;15.12;68.04;96071.84;4900368;28;20200;-85
2023/10/30 07:58:33;;;;;;;1.15;0.38;;;;;;;15.35;68.17;96085.69;4913704;28;20219;-84
2023/10/30 08:00:58;;;;;;;0.70;0.32;;;;;;;15.40;67.63;96081.38;4929753;28;20348;-85
2023/10/30 08:03:24;;;;;;;0.90;0.30;;;;;;;15.30;68.10;96077.16;4914710;28;20053;-84
2023/10/30 08:05:49;;;;;;;1.08;0.30;;;;;;;15.38;68.28;96086.91;4916075;28;20195;-85
2023/10/30 08:08:17;;;;;;;1.05;0.40;;;;;;;15.33;68.09;96077.31;4933362;28;20706;-85
2023/10/30 08:10:45;;;;;;;0.55;0.35;;;;;;;15.43;68.25;96080.78;4917425;28;20216;-84
2023/10/30 08:13:10;;;;;;;0.50;0.32;;;;;;;15.33;68.17;96068.69;4912714;28;20611;-85
2023/10/30 08:15:36;;;;;;;0.40;0.30;;;;;;;15.36;68.36;96061.00;4927258;28;20255;-83
2023/10/30 08:18:03;;;;;;;0.45;0.30;;;;;;;15.25;67.76;96025.63;4904278;28;20632;-84
2023/10/30 08:20:28;;;;;;;1.77;0.30;;;;;;;15.30;67.94;96025.50;4901349;28;20728;-84
2023/10/30 08:22:54;;;;;;;0.75;0.30;;;;;;;15.27;68.46;96036.59;4917440;28;20159;-84
2023/10/30 08:25:19;;;;;;;1.25;0.43;;;;;;;15.34;68.01;96046.66;4923308;28;20270;-83
2023/10/30 08:27:45;;;;;;;0.55;0.40;;;;;;;15.45;67.81;96057.63;4908934;28;20180;-84
2023/10/30 08:30:11;;;;;;;0.45;0.30;;;;;;;15.41;67.47;96041.72;4915731;28;20192;-83
2023/10/30 08:32:39;;;;;;;0.95;0.50;;;;;;;15.44;67.74;96053.44;4918746;28;20204;-84
2023/10/30 08:35:05;;;;;;;2.05;0.40;;;;;;;15.57;67.54;96078.81;4897882;28;20251;-84
2023/10/30 08:37:30;;;;;;;1.42;0.40;;;;;;;15.41;68.33;96067.19;4926896;28;20026;-85
2023/10/30 08:39:56;;;;;;;0.98;0.30;;;;;;;15.42;68.35;96064.28;4916074;28;20705;-85
2023/10/30 08:42:21;;;;;;;0.43;0.25;;;;;;;15.46;67.95;96067.06;4888390;28;20628;-85
2023/10/30 08:44:47;;;;;;;0.30;0.30;;;;;;;15.39;67.97;96045.72;4885533;28;20200;-84
2023/10/30 08:47:14;;;;;;;0.30;0.30;;;;;;;15.48;68.51;96039.44;4910537;28;20322;-85
2023/10/30 08:49:39;;;;;;;0.47;0.40;;;;;;;15.48;68.00;96047.31;4913335;28;20235;-84
2023/10/30 08:52:05;;;;;;;0.47;0.30;;;;;;;15.62;67.66;96049.06;4898058;28;20274;-85
2023/10/30 08:54:31;;;;;;;0.63;0.30;;;;;;;15.58;67.52;96041.03;4921357;28;20264;-85
2023/10/30 08:56:56;;;;;;;0.95;0.22;;;;;;;15.57;67.92;96033.44;4910790;28;20730;-84
2023/10/30 08:59:21;;;;;;;0.65;0.20;;;;;;;15.58;68.12;96025.28;4898979;28;20247;-84
2023/10/30 09:01:47;;;;;;;0.50;0.20;;;;;;;15.47;68.35;96003.81;4932764;28;20783;-84
2023/10/30 09:04:12;;;;;;;0.85;0.35;;;;;;;15.61;68.22;96008.94;4923879;28;20271;-85
2023/10/30 09:06:38;;;;;;;0.88;0.30;;;;;;;15.55;68.68;95983.91;4897447;28;20195;-84
2023/10/30 09:09:03;;;;;;;0.40;0.40;;;;;;;15.77;67.97;96003.28;4901169;28;20581;-83
2023/10/30 09:11:28;;;;;;;0.50;0.50;;;;;;;15.67;68.20;95997.19;4905197;28;20231;-84
2023/10/30 09:13:54;;;;;;;0.52;0.32;;;;;;;15.39;69.39;95961.78;4897376;28;20158;-85
2023/10/30 09:16:19;;;;;;;0.40;0.40;;;;;;;15.77;68.31;96004.06;4904196;28;20272;-85
2023/10/30 09:18:45;;;;;;;0.50;0.40;;;;;;;15.70;68.58;95983.47;4902580;28;20279;-84
2023/10/30 09:21:10;;;;;;;1.08;0.30;;;;;;;15.70;68.18;95980.09;4912416;28;20200;-84
2023/10/30 09:23:35;;;;;;;0.30;0.30;;;;;;;15.75;68.44;95993.09;4930166;28;20305;-84
2023/10/30 09:26:03;;;;;;;0.60;0.32;;;;;;;15.78;68.43;95975.94;4918993;28;20196;-84
2023/10/30 09:28:28;;;;;;;1.38;0.50;;;;;;;15.72;68.58;95970.81;4897918;28;20200;-84
2023/10/30 09:30:53;;;;;;;0.40;0.40;;;;;;;15.70;68.83;95967.72;4903525;28;20184;-83
2023/10/30 09:33:19;;;;;;;0.43;0.30;;;;;;;15.94;67.86;95976.25;4906861;28;20512;-83
2023/10/30 09:35:44;;;;;;;1.10;0.30;;;;;;;15.76;67.77;95984.13;4903475;28;20207;-83
2023/10/30 09:38:10;;;;;;;0.20;0.20;;;;;;;15.71;68.06;95971.13;4893710;28;20184;-84
2023/10/30 09:40:35;;;;;;;0.35;0.30;;;;;;;15.67;68.19;95964.94;4887416;28;20170;-83
2023/10/30 09:43:04;;;;;;;0.20;0.20;;;;;;;15.75;68.06;95979.97;4916373;28;20273;-82
2023/10/30 09:45:29;;;;;;;0.30;0.30;;;;;;;15.73;68.65;95964.50;4904587;28;20227;-83
2023/10/30 09:47:56;;;;;;;0.30;0.30;;;;;;;15.84;67.84;95972.88;4898823;28;20638;-83
2023/10/30 09:50:23;;;;;;;0.20;0.20;;;;;;;15.81;67.77;95957.72;4916567;28;20157;-82
2023/10/30 09:52:51;;;;;;;0.30;0.30;;;;;;;16.06;67.49;95979.06;4904288;28;20285;-82
2023/10/30 09:55:18;;;;;;;0.38;0.30;;;;;;;16.00;67.77;95975.03;4913517;28;20654;-83
2023/10/30 09:57:46;;;;;;;0.63;0.20;;;;;;;15.82;68.03;95946.16;4926976;28;20760;-83
2023/10/30 10:00:12;;;;;;;0.63;0.22;;;;;;;15.74;67.99;95923.28;4915671;28;20275;-84
2023/10/30 10:02:37;;;;;;;0.50;0.40;;;;;;;15.77;68.41;95927.94;4893085;28;20162;-84
2023/10/30 10:05:04;;;;;;;0.65;0.63;;;;;;;15.76;68.42;95930.88;4896847;28;20102;-83
2023/10/30 10:07:30;;;;;;;1.33;0.75;;;;;;;15.80;68.56;95932.59;4917024;28;20298;-84
2023/10/30 10:10:00;;;;;;;1.00;0.88;;;;;;;15.82;68.78;95930.41;4904628;28;20641;-84
2023/10/30 10:12:26;;;;;;;1.30;0.70;;;;;;;15.73;68.15;95921.75;4888814;28;20298;-84
2023/10/30 10:14:51;;;;;;;1.25;0.50;;;;;;;15.70;68.69;95917.09;4885530;28;20559;-84
2023/10/30 10:17:17;;;;;;;1.10;0.80;;;;;;;15.66;68.44;95901.22;4896868;28;20286;-83
2023/10/30 10:19:46;;;;;;;1.02;0.57;;;;;;;15.79;68.12;95899.53;4898686;28;20173;-84
2023/10/30 10:22:26;;;;;;;1.02;0.50;;;;;;;15.93;68.45;95922.22;4895295;28;20657;-83
2023/10/30 10:24:52;;;;;;;0.40;0.38;;;;;;;15.82;68.11;95912.03;4910989;28;20290;-83
2023/10/30 10:27:19;;;;;;;1.27;0.38;;;;;;;15.79;67.66;95899.53;4903675;28;20134;-84
2023/10/30 10:29:44;;;;;;;0.47;0.47;;;;;;;15.82;67.81;95904.16;4913795;28;20173;-84
2023/10/30 10:32:11;;;;;;;0.40;0.30;;;;;;;15.77;67.86;95896.44;4908123;28;20330;-84
2023/10/30 10:34:37;;;;;;;0.40;0.30;;;;;;;15.91;67.86;95912.81;4900158;28;20698;-84
2023/10/30 10:37:03;;;;;;;0.30;0.25;;;;;;;15.76;67.84;95892.28;4907788;28;20114;-82
2023/10/30 10:39:46;;;;;;;0.50;0.28;;;;;;;16.04;67.98;95895.34;4909644;28;20337;-83
2023/10/30 10:42:12;;;;;;;1.27;0.40;;;;;;;15.97;69.08;95889.81;4928435;28;20693;-85
2023/10/30 10:44:38;;;;;;;0.63;0.28;;;;;;;16.09;68.83;95874.19;4879914;28;20278;-82
2023/10/30 10:47:04;;;;;;;0.32;0.30;;;;;;;16.22;68.55;95882.19;4891203;28;20173;-84
2023/10/30 10:49:29;;;;;;;1.80;0.60;;;;;;;16.07;68.71;95855.38;4911138;28;20103;-84
2023/10/30 10:51:55;;;;;;;0.52;0.52;;;;;;;16.27;68.77;95864.41;4893420;28;20276;-82
2023/10/30 10:54:24;;;;;;;0.52;0.50;;;;;;;16.31;68.55;95851.41;4895701;28;20244;-82
2023/10/30 10:56:52;;;;;;;0.70;0.63;;;;;;;16.46;67.96;95860.66;4922317;28;20206;-84
2023/10/30 10:59:21;;;;;;;1.27;0.60;;;;;;;16.50;68.10;95845.78;4897788;28;20299;-84
2023/10/30 11:01:48;;;;;;;1.50;0.80;;;;;;;16.50;68.55;95850.28;4912259;28;20196;-82
2023/10/30 11:04:14;;;;;;;1.00;0.90;;;;;;;16.48;68.76;95834.84;4897347;28;20169;-83
2023/10/30 11:06:45;;;;;;;1.98;0.98;;;;;;;16.51;69.17;95818.44;4892136;28;20270;-84
2023/10/30 11:09:47;;;;;;;1.52;0.98;;;;;;;16.76;68.58;95818.63;4908334;28;20204;-84
2023/10/30 11:12:47;;;;;;;1.35;1.00;;;;;;;16.82;68.33;95818.13;4903998;28;20207;-84
2023/10/30 11:15:20;;;;;;;0.82;0.82;;;;;;;16.87;67.95;95813.84;4900972;28;20768;-82
2023/10/30 11:18:17;;;;;;;1.83;1.00;;;;;;;16.92;68.07;95814.41;4888849;28;20165;-84
2023/10/30 11:20:44;;;;;;;1.63;1.00;;;;;;;16.92;68.36;95806.53;4923587;28;20199;-85
2023/10/30 11:23:09;;;;;;;4.15;1.60;;;;;;;16.87;68.48;95796.19;4920643;28;20635;-84
2023/10/30 11:25:54;;;;;;;1.30;0.93;;;;;;;16.98;67.71;95807.09;4926417;28;20176;-82
2023/10/30 11:28:23;;;;;;;1.90;1.10;;;;;;;16.98;67.87;95789.47;4918805;28;20106;-84
2023/10/30 11:30:51;;;;;;;1.92;1.58;;;;;;;16.99;68.29;95796.25;4905545;28;20277;-83
2023/10/30 11:33:30;;;;;;;2.22;1.50;;;;;;;17.01;67.99;95777.53;4904682;28;20709;-84